KCLT/CLT METAR and TAF weather

Enter ICAO airport designator
Station Type Date Time Source
KCLT METAR 2021/07/27 21:52 UTC NOAA

KCLT 272152Z 26004KT 10SM SCT046 SCT075 BKN250 33/22 A2997 RMK AO2 SLP137 CB DSNT NW-N AND SE-SW TCU DSNT E T03330222


Station Type Date Time Source
KCLT Decoded METAR 2021/07/27 21:52 UTC NOAA

CHARLOTTE/DOUGLAS INTERNATIONAL , NC, United States (KCLT) 35-13N 80-57W 220M
Jul 27, 2021 - 05:52 PM EDT / 2021.07.27 2152 UTC
Wind: from the W (260 degrees) at 5 MPH (4 KT):0
Visibility: 10 mile(s):0
Sky conditions: mostly cloudy
Weather: Cumulonimbus clouds, towering cumulus clouds observed
Temperature: 91.9 F (33.3 C)
Heat index: 99.5 F (37.5 C):1
Dew Point: 72.0 F (22.2 C)
Relative Humidity: 52%
Pressure (altimeter): 29.97 in. Hg (1014 hPa)
ob: KCLT 272152Z 26004KT 10SM SCT046 SCT075 BKN250 33/22 A2997 RMK AO2 SLP137 CB DSNT NW-N AND SE-SW TCU DSNT E T03330222
cycle: 22

Station Type Date Time Source
KCLT TAF 2021/07/27 20:15 UTC NOAA

TAF
AMD KCLT 272012Z 2720/2824 VRB03KT P6SM SCT040 BKN250
TEMPO 2721/2801 4SM TSRA BR OVC025CB
FM280700 00000KT P6SM SCT180
FM280900 00000KT 6SM BR SCT080
FM281400 03004KT P6SM FEW250

Example: see airport list